Aviation Digital Data Service (ADDS)

Output produced by METARs form (2155 UTC 19 February 2018)
found at http://www.aviationweather.gov/adds/metars/
 
FTTJ 192100Z 31003KT CAVOK 26/02 Q1009 NOSIG
TAF FTTJ 191700Z 1918/2024 36006KT 8000 NSC 
     TEMPO 2004/2007 4500HZ
       
FTTA 192100Z 00000KT CAVOK 29/15 Q1009